Time;durP1;ratioP1;P1;durP2;ratioP2;P2;SDS_P1;SDS_P2;PMS_P1;PMS_P2;Temp;Humidity;BMP_temperature;BMP_pressure;BME280_temperature;BME280_humidity;BME280_pressure;Samples;Min_cycle;Max_cycle;Signal;HPM_P1;HPM_P2
2022/01/14 00:02:56;;;;;;;93.38;35.83;;;;;;;-3.21;100.00;101493.06;6323364;28;20424;-69
2022/01/14 00:05:57;;;;;;;86.53;34.95;;;;;;;-3.28;100.00;101496.31;6323142;28;20404;-69
2022/01/14 00:09:06;;;;;;;77.05;32.20;;;;;;;-3.31;100.00;101499.66;6321938;28;20089;-72
2022/01/14 00:12:14;;;;;;;81.18;33.50;;;;;;;-3.31;100.00;101494.56;6321888;28;20123;-68
2022/01/14 00:15:24;;;;;;;78.63;33.13;;;;;;;-3.21;100.00;101484.50;6274025;28;20052;-69
2022/01/14 00:18:25;;;;;;;83.38;32.53;;;;;;;-3.28;100.00;101484.41;6321666;28;20048;-69
2022/01/14 00:21:27;;;;;;;75.55;28.73;;;;;;;-3.25;100.00;101475.97;6304280;28;20191;-68
2022/01/14 00:31:37;;;;;;;78.55;32.72;;;;;;;-3.12;100.00;101474.47;6304933;28;20044;-68
2022/01/14 00:34:27;;;;;;;82.07;32.83;;;;;;;-3.20;100.00;101479.44;6322527;28;20040;-73
2022/01/14 00:37:27;;;;;;;91.28;35.42;;;;;;;-3.20;100.00;101476.03;6322202;28;20070;-73
2022/01/14 00:40:28;;;;;;;93.45;31.23;;;;;;;-3.09;100.00;101470.28;6321260;28;20067;-73
2022/01/14 00:43:29;;;;;;;96.75;35.25;;;;;;;-3.06;100.00;101462.66;6322399;28;20040;-73
2022/01/14 00:46:30;;;;;;;82.97;33.47;;;;;;;-3.16;100.00;101473.56;6322165;28;20063;-69
2022/01/14 00:49:31;;;;;;;98.63;36.50;;;;;;;-3.08;100.00;101472.00;6322454;28;20048;-73
2022/01/14 00:52:31;;;;;;;75.65;29.05;;;;;;;-3.09;100.00;101480.50;6322011;28;20127;-72
2022/01/14 00:55:46;;;;;;;81.70;34.05;;;;;;;-3.02;100.00;101475.50;6320805;28;20380;-72
2022/01/14 01:02:06;;;;;;;87.13;34.53;;;;;;;-2.97;100.00;101476.44;6320823;28;20063;-68
2022/01/14 01:05:07;;;;;;;82.50;30.40;;;;;;;-2.93;100.00;101478.22;6321966;28;20043;-68
2022/01/14 01:08:12;;;;;;;95.63;36.22;;;;;;;-2.90;100.00;101451.03;6321533;28;20063;-69
2022/01/14 01:11:12;;;;;;;72.38;29.35;;;;;;;-2.90;100.00;101447.63;6304209;28;20066;-70
2022/01/14 01:14:21;;;;;;;89.18;35.55;;;;;;;-2.89;100.00;101445.06;6320440;28;20559;-68
2022/01/14 01:17:22;;;;;;;83.35;34.65;;;;;;;-2.87;100.00;101448.50;6320280;28;20480;-69
2022/01/14 01:20:23;;;;;;;88.53;33.63;;;;;;;-3.02;100.00;101450.81;6321375;28;20043;-68
2022/01/14 01:23:24;;;;;;;88.60;35.00;;;;;;;-2.86;100.00;101450.25;6320293;28;20045;-68
2022/01/14 01:26:34;;;;;;;55.30;23.38;;;;;;;-2.90;100.00;101453.59;6320177;28;20035;-72
2022/01/14 01:32:37;;;;;;;73.80;30.40;;;;;;;-2.97;100.00;101423.66;6320706;28;20141;-68
2022/01/14 01:35:38;;;;;;;98.55;35.85;;;;;;;-2.92;100.00;101406.72;6320759;28;20507;-68
2022/01/14 01:38:39;;;;;;;87.15;35.78;;;;;;;-2.90;100.00;101406.75;6319798;28;20071;-72
2022/01/14 01:41:43;;;;;;;100.85;37.55;;;;;;;-2.93;100.00;101412.66;6321000;28;20118;-72
2022/01/14 01:44:44;;;;;;;90.85;34.30;;;;;;;-2.85;100.00;101405.13;6320997;28;20050;-73
2022/01/14 01:47:49;;;;;;;92.72;37.03;;;;;;;-3.05;100.00;101376.69;6320608;28;20044;-68
2022/01/14 01:50:50;;;;;;;96.43;37.65;;;;;;;-2.87;100.00;101388.91;6319647;28;20051;-72
2022/01/14 01:53:50;;;;;;;97.97;36.35;;;;;;;-2.82;100.00;101384.75;6319387;28;20060;-68
2022/01/14 01:56:51;;;;;;;77.95;33.08;;;;;;;-2.93;100.00;101386.25;6302548;28;20488;-73
2022/01/14 01:59:52;;;;;;;84.95;34.90;;;;;;;-2.84;100.00;101382.16;6302624;28;20047;-68
2022/01/14 02:02:54;;;;;;;88.65;33.00;;;;;;;-2.79;100.00;101372.00;6320652;28;20702;-73
2022/01/14 02:05:55;;;;;;;83.57;34.63;;;;;;;-2.75;100.00;101385.69;6320537;28;20044;-73
2022/01/14 02:08:56;;;;;;;92.35;36.60;;;;;;;-2.67;100.00;101384.97;6320121;28;20097;-69
2022/01/14 02:11:57;;;;;;;80.65;32.25;;;;;;;-2.70;100.00;101377.25;6320492;28;20384;-69
2022/01/14 02:15:28;;;;;;;88.28;34.70;;;;;;;-2.62;100.00;101374.78;6320360;28;20609;-73
2022/01/14 02:24:57;;;;;;;77.30;33.58;;;;;;;-2.61;100.00;101348.41;6320338;28;20097;-69
2022/01/14 02:28:07;;;;;;;87.05;35.05;;;;;;;-2.59;100.00;101356.97;6304044;28;20040;-68
2022/01/14 02:31:09;;;;;;;94.68;36.58;;;;;;;-2.62;100.00;101351.78;6320263;28;20044;-73
2022/01/14 02:34:11;;;;;;;61.17;28.53;;;;;;;-2.70;100.00;101353.38;6319146;28;20058;-70
2022/01/14 02:37:12;;;;;;;90.80;33.90;;;;;;;-2.58;100.00;101353.56;6318953;28;20047;-73
2022/01/14 02:40:14;;;;;;;72.47;32.20;;;;;;;-2.56;100.00;101357.00;6319096;28;20051;-68
2022/01/14 02:43:16;;;;;;;90.63;33.28;;;;;;;-2.55;100.00;101345.06;6320395;28;20044;-69
2022/01/14 02:46:17;;;;;;;93.68;34.17;;;;;;;-2.58;100.00;101352.69;6306132;28;20040;-68
2022/01/14 02:49:19;;;;;;;97.03;35.58;;;;;;;-2.48;100.00;101355.41;6306896;28;20494;-72
2022/01/14 02:52:40;;;;;;;92.70;34.72;;;;;;;-2.35;100.00;101343.63;6324920;28;20048;-72
2022/01/14 02:55:43;;;;;;;83.13;32.90;;;;;;;-2.40;100.00;101334.19;6323737;28;20032;-72
2022/01/14 02:58:44;;;;;;;79.55;31.45;;;;;;;-2.29;100.00;101330.91;6324718;28;20473;-68
2022/01/14 03:01:46;;;;;;;85.22;33.78;;;;;;;-2.35;100.00;101322.31;6324806;28;20040;-72
2022/01/14 03:04:47;;;;;;;;;;;;;;;-2.45;100.00;101314.56;6325271;28;20040;-68
2022/01/14 03:07:48;;;;;;;74.22;29.92;;;;;;;-2.41;100.00;101328.22;6324676;28;19920;-69
2022/01/14 03:11:02;;;;;;;86.45;33.30;;;;;;;-2.29;100.00;101327.50;6324681;28;20138;-69
2022/01/14 03:14:04;;;;;;;78.00;32.10;;;;;;;-2.30;100.00;101307.91;6324624;28;20092;-69
2022/01/14 03:17:05;;;;;;;68.00;27.80;;;;;;;-2.30;100.00;101300.25;6324440;28;20048;-73
2022/01/14 03:20:08;;;;;;;89.53;34.05;;;;;;;-2.45;100.00;101290.66;6323205;28;20108;-73
2022/01/14 03:23:11;;;;;;;87.68;35.30;;;;;;;-2.46;100.00;101307.72;6324321;28;20099;-73
2022/01/14 03:26:17;;;;;;;80.55;33.47;;;;;;;-2.22;100.00;101324.19;6306610;28;20036;-72
2022/01/14 03:29:19;;;;;;;74.00;28.30;;;;;;;-2.26;100.00;101325.84;6324092;28;20040;-69
2022/01/14 03:32:20;;;;;;;88.90;34.80;;;;;;;-2.26;100.00;101309.66;6322968;28;20040;-72
2022/01/14 03:35:20;;;;;;;80.88;32.92;;;;;;;-2.41;100.00;101317.13;6322983;28;20075;-72
2022/01/14 03:38:21;;;;;;;91.68;37.60;;;;;;;-2.27;100.00;101330.94;6322611;28;20047;-72
2022/01/14 03:41:22;;;;;;;89.15;33.47;;;;;;;-2.26;100.00;101319.91;6324045;28;20040;-69
2022/01/14 03:44:23;;;;;;;97.38;37.35;;;;;;;-2.24;100.00;101328.44;6306074;28;20062;-69
2022/01/14 03:47:24;;;;;;;85.28;31.95;;;;;;;-2.28;100.00;101316.47;6324001;28;20119;-69
2022/01/14 03:50:27;;;;;;;86.88;31.58;;;;;;;-2.24;100.00;101315.66;6322340;28;20039;-73
2022/01/14 03:53:27;;;;;;;74.00;31.63;;;;;;;-2.14;100.00;101309.81;6305780;28;20515;-72
2022/01/14 03:56:28;;;;;;;82.32;35.13;;;;;;;-2.14;100.00;101308.94;6304261;28;20118;-72
2022/01/14 03:59:29;;;;;;;87.43;33.47;;;;;;;-2.14;100.00;101314.03;6323532;28;20093;-70
2022/01/14 04:02:30;;;;;;;78.22;32.22;;;;;;;-2.30;100.00;101310.47;6305380;28;20040;-69
2022/01/14 04:05:31;;;;;;;86.88;35.38;;;;;;;-2.21;100.00;101302.88;6322118;28;20036;-70
2022/01/14 04:08:32;;;;;;;80.63;33.47;;;;;;;-2.10;100.00;101295.34;6323180;28;20072;-73
2022/01/14 04:11:34;;;;;;;81.80;33.50;;;;;;;-2.14;100.00;101280.78;6323291;28;20072;-69
2022/01/14 04:17:38;;;;;;;83.10;33.00;;;;;;;-2.26;100.00;101281.53;6323042;28;20043;-69
2022/01/14 04:20:40;;;;;;;82.15;33.33;;;;;;;-2.23;100.00;101292.63;6323282;28;20119;-72
2022/01/14 04:23:41;;;;;;;86.15;34.72;;;;;;;-2.23;100.00;101297.75;6323010;28;20040;-72
2022/01/14 04:26:42;;;;;;;89.88;33.45;;;;;;;-2.21;100.00;101281.59;6323016;28;20043;-72
2022/01/14 04:29:43;;;;;;;90.03;34.25;;;;;;;-2.10;100.00;101273.19;6322763;28;20119;-69
2022/01/14 04:32:43;;;;;;;85.07;33.38;;;;;;;-2.17;100.00;101275.66;6321505;28;20044;-72
2022/01/14 04:35:44;;;;;;;96.40;34.70;;;;;;;-2.19;100.00;101279.91;6304595;28;20094;-69
2022/01/14 04:38:45;;;;;;;79.78;32.15;;;;;;;-2.14;100.00;101271.44;6321337;28;20097;-69
2022/01/14 04:41:45;;;;;;;82.90;34.30;;;;;;;-2.10;100.00;101273.19;6304542;28;20094;-73
2022/01/14 04:44:46;;;;;;;84.18;33.50;;;;;;;-2.19;100.00;101280.75;6304871;28;20105;-70
2022/01/14 04:47:47;;;;;;;86.38;34.33;;;;;;;-2.26;100.00;101278.97;6322460;28;20549;-69
2022/01/14 04:50:52;;;;;;;86.30;32.28;;;;;;;-2.21;100.00;101287.53;6321086;28;20036;-72
2022/01/14 04:53:52;;;;;;;93.43;35.42;;;;;;;-2.17;100.00;101279.06;6322410;28;20087;-73
2022/01/14 04:56:53;;;;;;;86.65;35.55;;;;;;;-2.19;100.00;101277.34;6320956;28;20407;-69
2022/01/14 04:59:54;;;;;;;82.88;33.80;;;;;;;-2.25;100.00;101258.53;6320827;28;20097;-69
2022/01/14 05:02:55;;;;;;;80.03;31.10;;;;;;;-2.30;100.00;101257.63;6320839;28;20047;-69
2022/01/14 05:05:58;;;;;;;78.57;31.97;;;;;;;-2.29;100.00;101241.44;6322028;28;20514;-72
2022/01/14 05:08:59;;;;;;;82.72;35.05;;;;;;;-2.29;100.00;101231.22;6320401;28;20040;-72
2022/01/14 05:12:09;;;;;;;88.85;33.70;;;;;;;-2.25;100.00;101224.44;6303829;28;20044;-69
2022/01/14 05:15:11;;;;;;;79.78;31.80;;;;;;;-2.42;100.00;101224.25;6320715;28;20039;-69
2022/01/14 05:18:12;;;;;;;83.85;33.28;;;;;;;-2.39;100.00;101218.31;6320426;28;20040;-69
2022/01/14 05:21:14;;;;;;;90.13;33.83;;;;;;;-2.31;100.00;101216.69;6321529;28;20043;-69
2022/01/14 05:24:15;;;;;;;92.88;34.60;;;;;;;-2.33;100.00;101219.22;6320253;28;20044;-69
2022/01/14 05:27:15;;;;;;;86.50;32.00;;;;;;;-2.32;100.00;101220.09;6321476;28;20089;-73
2022/01/14 05:30:16;;;;;;;78.93;31.45;;;;;;;-2.40;100.00;101220.03;6321210;28;20040;-73
2022/01/14 05:33:18;;;;;;;75.63;30.17;;;;;;;-2.38;100.00;101214.94;6321303;28;20047;-73
2022/01/14 05:36:20;;;;;;;78.90;29.30;;;;;;;-2.47;100.00;101213.13;6321224;28;20693;-73
2022/01/14 05:39:23;;;;;;;;;;;;;;;-2.36;100.00;101220.91;6303814;28;20519;-73
2022/01/14 05:42:24;;;;;;;48.95;21.60;;;;;;;-2.38;100.00;101218.34;6321636;28;19965;-73
2022/01/14 05:45:26;;;;;;;59.53;26.90;;;;;;;-2.46;100.00;101223.34;6319878;28;20051;-73
2022/01/14 05:48:26;;;;;;;92.10;32.10;;;;;;;-2.33;100.00;101213.28;6319542;28;20075;-73
2022/01/14 05:51:27;;;;;;;86.20;33.10;;;;;;;-2.24;100.00;101213.38;6319279;28;20052;-73
2022/01/14 05:54:29;;;;;;;81.43;31.95;;;;;;;-2.17;100.00;101220.25;6320974;28;20066;-69
2022/01/14 05:57:30;;;;;;;74.20;31.13;;;;;;;-2.33;100.00;101216.66;6320807;28;20044;-69
2022/01/14 06:00:31;;;;;;;81.87;31.70;;;;;;;-2.30;100.00;101216.72;6321045;28;20115;-69
2022/01/14 06:03:32;;;;;;;94.72;34.22;;;;;;;-2.38;100.00;101204.72;6319292;28;20396;-69
2022/01/14 06:06:34;;;;;;;77.47;31.60;;;;;;;-2.38;100.00;101195.34;6318181;28;20042;-69
2022/01/14 06:09:35;;;;;;;85.05;34.15;;;;;;;-2.44;100.00;101195.28;6320553;28;20069;-69
2022/01/14 06:12:36;;;;;;;66.35;27.80;;;;;;;-2.36;100.00;101192.81;6315880;28;20040;-69
2022/01/14 06:15:37;;;;;;;83.53;31.73;;;;;;;-2.28;100.00;101183.50;6300035;28;20032;-72
2022/01/14 06:18:38;;;;;;;78.07;30.85;;;;;;;-2.27;100.00;101180.94;6314663;28;20403;-72
2022/01/14 06:21:39;;;;;;;74.05;31.85;;;;;;;-2.27;100.00;101187.75;6302448;28;20484;-72
2022/01/14 06:24:39;;;;;;;90.30;37.53;;;;;;;-2.22;100.00;101168.22;6320619;28;20055;-71
2022/01/14 06:27:41;;;;;;;79.40;33.95;;;;;;;-2.32;100.00;101163.88;6319608;28;20119;-71
2022/01/14 06:30:42;;;;;;;84.63;33.13;;;;;;;-2.33;100.00;101159.59;6315787;28;20166;-73
2022/01/14 06:33:43;;;;;;;80.65;33.63;;;;;;;-2.39;100.00;101152.69;6315838;28;20040;-73
2022/01/14 06:36:43;;;;;;;75.30;30.95;;;;;;;-2.31;100.00;101142.56;6316934;28;20123;-73
2022/01/14 06:39:44;;;;;;;83.18;33.80;;;;;;;-2.32;100.00;101143.41;6317768;28;20044;-73
2022/01/14 06:42:45;;;;;;;78.93;32.42;;;;;;;-2.41;100.00;101154.38;6319016;28;20039;-71
2022/01/14 06:45:46;;;;;;;70.75;29.92;;;;;;;-2.35;100.00;101158.72;6298898;28;20484;-73
2022/01/14 06:48:47;;;;;;;74.85;30.52;;;;;;;-2.30;100.00;101160.47;6318853;28;20048;-74
2022/01/14 06:51:47;;;;;;;61.17;27.25;;;;;;;-2.26;100.00;101162.22;6318479;28;20063;-73
2022/01/14 06:54:48;;;;;;;68.22;26.70;;;;;;;-2.24;100.00;101167.34;6315229;28;20491;-71
2022/01/14 06:57:49;;;;;;;89.15;34.20;;;;;;;-2.12;100.00;101162.34;6317232;28;20070;-70
2022/01/14 07:00:50;;;;;;;78.90;30.95;;;;;;;-2.14;100.00;101151.25;6320919;28;20044;-71
2022/01/14 07:03:51;;;;;;;82.90;31.33;;;;;;;-2.08;100.00;101158.09;6313180;28;20052;-73
2022/01/14 07:06:52;;;;;;;75.85;31.80;;;;;;;-2.16;100.00;101173.41;6312796;28;20047;-74
2022/01/14 07:09:58;;;;;;;84.45;34.47;;;;;;;-2.13;100.00;101175.13;6306501;28;20258;-71
2022/01/14 07:12:59;;;;;;;68.55;28.15;;;;;;;-2.16;100.00;101173.41;6316487;28;20093;-73
2022/01/14 07:16:00;;;;;;;81.32;30.58;;;;;;;-2.03;100.00;101175.19;6300611;28;20438;-69
2022/01/14 07:19:03;;;;;;;80.38;33.25;;;;;;;-2.25;100.00;101176.69;6313604;28;20536;-69
2022/01/14 07:22:04;;;;;;;83.78;33.92;;;;;;;-2.00;100.00;101169.25;6315454;28;20036;-69
2022/01/14 07:25:05;;;;;;;83.20;33.40;;;;;;;-1.89;100.00;101171.91;6313433;28;20050;-70
2022/01/14 07:28:06;;;;;;;111.70;41.67;;;;;;;-1.96;100.00;101165.03;6315817;28;20106;-69
2022/01/14 07:31:07;;;;;;;87.15;35.35;;;;;;;-1.99;100.00;101181.22;6315641;28;20044;-66
2022/01/14 07:34:08;;;;;;;63.88;26.65;;;;;;;-2.10;100.00;101170.91;6302313;28;20063;-66
2022/01/14 07:37:09;;;;;;;75.80;32.53;;;;;;;-1.98;100.00;101182.06;6320123;28;20050;-66
2022/01/14 07:40:10;;;;;;;84.53;34.33;;;;;;;-1.96;100.00;101176.09;6320316;28;20507;-67
2022/01/14 07:43:11;;;;;;;93.97;35.13;;;;;;;-1.79;100.00;101175.38;6322160;28;20040;-69
2022/01/14 07:46:12;;;;;;;96.05;34.67;;;;;;;-1.89;100.00;101170.22;6304345;28;20424;-67
2022/01/14 07:49:14;;;;;;;68.05;26.77;;;;;;;-1.90;100.00;101172.75;6320400;28;20443;-70
2022/01/14 07:52:15;;;;;;;94.50;35.00;;;;;;;-1.98;100.00;101166.72;6316810;28;20511;-69
2022/01/14 07:55:16;;;;;;;84.70;32.10;;;;;;;-1.95;100.00;101161.63;6317788;28;20036;-71
2022/01/14 07:58:17;;;;;;;62.50;26.67;;;;;;;-2.02;100.00;101145.34;6319072;28;20126;-73
2022/01/14 08:01:17;;;;;;;70.05;31.80;;;;;;;-1.93;100.00;101139.47;6319692;28;20039;-74
2022/01/14 08:04:19;;;;;;;79.15;32.28;;;;;;;-1.93;100.00;101140.34;6302022;28;20059;-70
2022/01/14 08:07:22;;;;;;;62.35;25.67;;;;;;;-2.00;100.00;101142.81;6317773;28;20044;-74
2022/01/14 08:10:24;;;;;;;85.18;31.38;;;;;;;-1.97;100.00;101137.75;6305566;28;20037;-70
2022/01/14 08:13:24;;;;;;;87.40;35.90;;;;;;;-1.99;100.00;101142.84;6322182;28;20044;-70
2022/01/14 08:16:25;;;;;;;96.00;34.53;;;;;;;-2.01;100.00;101138.56;6321319;28;20040;-69
2022/01/14 08:19:32;;;;;;;77.80;30.70;;;;;;;-1.90;100.00;101132.66;6317693;28;20044;-70
2022/01/14 08:22:34;;;;;;;90.78;35.85;;;;;;;-1.88;100.00;101130.13;6317932;28;20476;-73
2022/01/14 08:25:35;;;;;;;100.55;35.78;;;;;;;-1.67;100.00;101122.63;6319447;28;20105;-73
2022/01/14 08:28:36;;;;;;;68.75;29.45;;;;;;;-1.83;100.00;101125.91;6316894;28;20044;-68
2022/01/14 08:31:37;;;;;;;77.22;31.42;;;;;;;-1.83;100.00;101126.75;6318752;28;20040;-70
2022/01/14 08:34:38;;;;;;;87.07;32.97;;;;;;;-1.78;100.00;101124.22;6321194;28;20051;-74
2022/01/14 08:37:39;;;;;;;70.40;29.70;;;;;;;-1.82;100.00;101096.91;6318484;28;20549;-73
2022/01/14 08:40:41;;;;;;;85.03;32.70;;;;;;;-1.82;100.00;101100.31;6333324;28;20502;-74
2022/01/14 08:43:42;;;;;;;97.28;37.72;;;;;;;-1.79;100.00;101085.81;6318944;28;20344;-71
2022/01/14 08:46:47;;;;;;;112.82;42.05;;;;;;;-1.76;100.00;101093.53;6318162;28;20419;-67
2022/01/14 08:49:47;;;;;;;103.57;38.10;;;;;;;-1.74;100.00;101087.56;6319498;28;20048;-67
2022/01/14 08:52:48;;;;;;;98.53;39.25;;;;;;;-1.65;100.00;101073.97;6300029;28;20149;-68
2022/01/14 08:55:49;;;;;;;81.35;32.88;;;;;;;-1.78;100.00;101074.75;6317897;28;20067;-71
2022/01/14 08:58:50;;;;;;;88.38;33.63;;;;;;;-1.76;100.00;101079.03;6318982;28;20048;-70
2022/01/14 09:01:51;;;;;;;98.15;36.65;;;;;;;-1.71;100.00;101071.38;6317652;28;20654;-68
2022/01/14 09:04:51;;;;;;;90.07;38.25;;;;;;;-1.64;100.00;101068.03;6319104;28;20043;-68
2022/01/14 09:07:52;;;;;;;83.88;34.00;;;;;;;-1.64;100.00;101079.09;6320264;28;20123;-68
2022/01/14 09:10:54;;;;;;;81.50;33.28;;;;;;;-1.50;100.00;101076.63;6319831;28;20047;-67
2022/01/14 09:13:54;;;;;;;94.63;33.27;;;;;;;-1.57;100.00;101077.44;6321494;28;20036;-70
2022/01/14 09:16:56;;;;;;;76.68;31.80;;;;;;;-1.58;100.00;101080.00;6321038;28;20492;-69
2022/01/14 09:19:57;;;;;;;76.85;34.72;;;;;;;-1.42;100.00;101084.34;6319469;28;20043;-69
2022/01/14 09:22:59;;;;;;;78.43;32.83;;;;;;;-1.45;100.00;101077.50;6316262;28;20066;-70
2022/01/14 09:26:00;;;;;;;101.22;38.22;;;;;;;-1.30;100.00;101078.41;6318482;28;20044;-70
2022/01/14 09:29:04;;;;;;;119.20;45.17;;;;;;;-1.30;100.00;101065.59;6317538;28;20043;-71
2022/01/14 09:32:12;;;;;;;83.95;32.65;;;;;;;-1.29;100.00;101069.88;6315657;28;20048;-70
2022/01/14 09:35:16;;;;;;;97.38;37.97;;;;;;;-1.34;100.00;101057.06;6318029;28;20047;-70
2022/01/14 09:38:17;;;;;;;94.20;34.00;;;;;;;-1.23;100.00;101047.72;6315638;28;20059;-67
2022/01/14 09:41:19;;;;;;;81.50;34.67;;;;;;;-1.29;100.00;101034.88;6316497;28;20044;-68
2022/01/14 09:44:20;;;;;;;95.63;37.42;;;;;;;-1.23;100.00;101034.91;6316466;28;20060;-70
2022/01/14 09:47:21;;;;;;;86.28;35.63;;;;;;;-1.25;100.00;101021.25;6315234;28;20032;-70
2022/01/14 09:50:23;;;;;;;83.05;35.70;;;;;;;-1.13;100.00;101006.75;6315884;28;20487;-70
2022/01/14 09:53:25;;;;;;;99.63;38.42;;;;;;;-1.28;100.00;101008.41;6316450;28;20087;-70
2022/01/14 09:56:26;;;;;;;87.25;37.05;;;;;;;-1.24;100.00;100996.47;6317697;28;20044;-69
2022/01/14 09:59:27;;;;;;;90.90;36.45;;;;;;;-1.10;100.00;100984.56;6314936;28;20059;-71
2022/01/14 10:02:40;;;;;;;85.35;37.97;;;;;;;-1.06;100.00;100991.41;6314731;28;20044;-69
2022/01/14 10:05:41;;;;;;;96.38;36.80;;;;;;;-0.94;100.00;100999.97;6316784;28;20082;-67
2022/01/14 10:08:42;;;;;;;106.38;40.95;;;;;;;-0.91;100.00;100990.56;6317035;28;20044;-67
2022/01/14 10:12:03;;;;;;;91.00;34.43;;;;;;;-1.05;100.00;100992.25;6318056;28;20040;-67
2022/01/14 10:15:11;;;;;;;80.45;35.83;;;;;;;-0.91;100.00;100989.72;6316379;28;20081;-73
2022/01/14 10:18:14;;;;;;;90.93;38.72;;;;;;;-0.81;100.00;100992.28;6317863;28;20474;-69
2022/01/14 10:21:14;;;;;;;105.15;42.65;;;;;;;-0.91;100.00;100988.00;6319281;28;20105;-69
2022/01/14 10:24:15;;;;;;;90.70;38.85;;;;;;;-0.86;100.00;100981.19;6319470;28;20522;-73
2022/01/14 10:27:36;;;;;;;85.07;35.33;;;;;;;-0.88;100.00;100982.88;6299531;28;20043;-67
2022/01/14 10:30:37;;;;;;;82.03;34.78;;;;;;;-0.82;100.00;100989.75;6316888;28;20047;-67
2022/01/14 10:33:38;;;;;;;74.18;33.50;;;;;;;-0.95;100.00;100983.72;6317831;28;20138;-70
2022/01/14 10:36:41;;;;;;;79.68;36.80;;;;;;;-0.70;100.00;100979.50;6317679;28;20040;-67
2022/01/14 10:39:48;;;;;;;71.10;31.27;;;;;;;-0.83;100.00;100975.19;6315297;28;20051;-71
2022/01/14 10:42:51;;;;;;;88.43;38.17;;;;;;;-0.77;100.00;100976.91;6313825;28;20044;-67
2022/01/14 10:45:52;;;;;;;93.72;38.67;;;;;;;-0.74;100.00;100964.09;6306271;28;20046;-67
2022/01/14 10:48:54;;;;;;;109.05;45.28;;;;;;;-0.86;100.00;100953.00;6317652;28;20147;-70
2022/01/14 10:52:20;;;;;;;99.60;39.55;;;;;;;-0.81;100.00;100937.63;6315881;28;20503;-67
2022/01/14 10:55:28;;;;;;;92.63;40.38;;;;;;;-0.78;100.00;100941.88;6317746;28;20040;-68
2022/01/14 10:58:31;;;;;;;93.32;39.20;;;;;;;-0.71;100.00;100926.50;6316495;28;20040;-68
2022/01/14 11:01:33;;;;;;;87.47;40.13;;;;;;;-0.55;100.00;100913.69;6318382;28;20123;-68
2022/01/14 11:04:35;;;;;;;80.88;34.15;;;;;;;-0.76;100.00;100917.09;6302626;28;20118;-68
2022/01/14 11:07:37;;;;;;;86.55;38.40;;;;;;;-0.50;100.00;100909.38;6303127;28;20041;-68
2022/01/14 11:10:39;;;;;;;91.90;39.53;;;;;;;-0.42;100.00;100905.94;6323621;28;20451;-70
2022/01/14 11:13:40;;;;;;;85.55;37.20;;;;;;;-0.58;100.00;100918.81;6307472;28;20074;-69
2022/01/14 11:16:42;;;;;;;84.82;39.13;;;;;;;-0.59;100.00;100904.28;6324767;28;20044;-69
2022/01/14 11:19:47;;;;;;;99.03;43.78;;;;;;;-0.65;100.00;100900.88;6323747;28;20046;-69
2022/01/14 11:26:15;;;;;;;86.85;38.03;;;;;;;-0.65;100.00;100918.81;6322960;28;20043;-72
2022/01/14 11:29:20;;;;;;;104.10;44.45;;;;;;;-0.65;100.00;100917.97;6322248;28;20403;-72
2022/01/14 11:32:21;;;;;;;96.07;41.25;;;;;;;-0.51;100.00;100903.41;6317596;28;20411;-73
2022/01/14 11:35:25;;;;;;;90.85;41.95;;;;;;;-0.68;100.00;100888.06;6285955;28;20052;-69
2022/01/14 11:38:35;;;;;;;100.00;45.60;;;;;;;-0.60;100.00;100882.91;6321381;28;20075;-72
2022/01/14 11:42:00;;;;;;;97.90;41.83;;;;;;;-0.61;100.00;100868.41;6336227;28;20043;-72
2022/01/14 11:45:02;;;;;;;77.85;33.75;;;;;;;-0.49;100.00;100860.69;6333172;28;20159;-71
2022/01/14 11:48:04;;;;;;;;;;;;;;;-0.44;100.00;100864.06;6321224;28;20532;-72
2022/01/14 11:51:07;;;;;;;80.18;35.95;;;;;;;-0.30;100.00;100860.63;6323961;28;20077;-69
2022/01/14 11:54:08;;;;;;;84.82;37.63;;;;;;;-0.30;100.00;100856.34;6322457;28;20059;-69
2022/01/14 11:57:10;;;;;;;88.05;39.90;;;;;;;-0.28;100.00;100854.63;6322012;28;20099;-69
2022/01/14 12:00:30;;;;;;;86.03;40.92;;;;;;;-0.29;100.00;100863.19;6317987;28;20082;-69
2022/01/14 12:03:31;;;;;;;93.35;39.20;;;;;;;-0.59;100.00;100855.59;6313242;28;20032;-72
2022/01/14 12:06:50;;;;;;;97.05;41.38;;;;;;;-0.73;100.00;100846.19;6318676;28;20044;-72
2022/01/14 12:10:03;;;;;;;91.65;38.65;;;;;;;-0.85;100.00;100854.75;6320527;28;20298;-72
2022/01/14 12:16:49;;;;;;;91.10;39.70;;;;;;;-0.69;100.00;100859.88;6322115;28;20111;-73
2022/01/14 12:19:54;;;;;;;87.88;38.65;;;;;;;-0.65;100.00;100846.19;6319014;28;20522;-73
2022/01/14 12:23:09;;;;;;;93.88;40.75;;;;;;;-0.73;100.00;100848.75;6318548;28;20040;-74
2022/01/14 12:26:19;;;;;;;86.20;38.85;;;;;;;-0.65;100.00;100841.91;6338079;28;20044;-73
2022/01/14 12:29:38;;;;;;;131.15;50.63;;;;;;;-0.57;100.00;100848.75;6322488;28;20067;-71
2022/01/14 12:32:41;;;;;;;150.20;57.67;;;;;;;-0.47;100.00;100858.13;6320349;28;20043;-71
2022/01/14 12:35:42;;;;;;;119.45;49.13;;;;;;;-0.68;100.00;100834.25;6320434;28;20036;-70
2022/01/14 12:38:44;;;;;;;135.63;51.50;;;;;;;-0.62;100.00;100839.34;6322354;28;20127;-70
2022/01/14 12:41:45;;;;;;;132.50;52.70;;;;;;;-0.66;100.00;100847.03;6301585;28;20445;-73
2022/01/14 12:44:47;;;;;;;124.97;52.97;;;;;;;-0.56;100.00;100841.03;6317246;28;20047;-74
2022/01/14 12:47:48;;;;;;;104.85;45.05;;;;;;;-0.65;100.00;100861.56;6318898;28;20040;-73
2022/01/14 12:50:49;;;;;;;100.87;43.10;;;;;;;-0.59;100.00;100846.19;6319877;28;20036;-74
2022/01/14 12:53:58;;;;;;;116.97;45.70;;;;;;;-0.55;100.00;100849.59;6320794;28;20044;-71
2022/01/14 12:56:59;;;;;;;98.68;40.22;;;;;;;-0.58;100.00;100842.75;6321275;28;20066;-70
2022/01/14 13:00:01;;;;;;;104.18;40.17;;;;;;;-0.57;100.00;100823.97;6320919;28;20468;-70
2022/01/14 13:03:08;;;;;;;94.05;41.58;;;;;;;-0.43;100.00;100806.81;6301074;28;20043;-74
2022/01/14 13:06:10;;;;;;;96.68;43.08;;;;;;;-0.51;100.00;100800.03;6302368;28;20510;-70
2022/01/14 13:09:13;;;;;;;99.30;40.22;;;;;;;-0.39;100.00;100793.97;6318050;28;20062;-70
2022/01/14 13:12:14;;;;;;;94.93;37.90;;;;;;;-0.58;100.00;100800.88;6328329;28;20041;-70
2022/01/14 13:15:20;;;;;;;98.22;41.83;;;;;;;-0.57;100.00;100807.72;6321067;28;20127;-71
2022/01/14 13:18:28;;;;;;;100.30;45.08;;;;;;;-0.62;100.00;100787.22;6322430;28;20381;-70
2022/01/14 13:21:29;;;;;;;97.80;41.40;;;;;;;-0.43;100.00;100786.31;6304572;28;20044;-70
2022/01/14 13:24:31;;;;;;;99.22;43.17;;;;;;;-0.45;100.00;100782.88;6320336;28;20051;-70
2022/01/14 13:27:34;;;;;;;104.15;43.33;;;;;;;-0.51;100.00;100780.34;6318829;28;20418;-71
2022/01/14 13:30:42;;;;;;;94.97;42.97;;;;;;;-0.60;100.00;100772.69;6321466;28;20037;-71
2022/01/14 13:33:43;;;;;;;97.03;41.90;;;;;;;-0.52;100.00;100776.06;6321397;28;20040;-71
2022/01/14 13:36:44;;;;;;;90.43;38.53;;;;;;;-0.58;100.00;100773.53;6320103;28;20168;-70
2022/01/14 13:39:45;;;;;;;94.68;43.83;;;;;;;-0.68;100.00;100767.59;6318619;28;20040;-70
2022/01/14 13:42:53;;;;;;;104.93;43.95;;;;;;;-0.56;100.00;100761.56;6320847;28;20048;-71
2022/01/14 13:46:11;;;;;;;100.35;44.35;;;;;;;-0.58;100.00;100763.28;6320780;28;20052;-70
2022/01/14 13:49:20;;;;;;;98.20;41.25;;;;;;;-0.52;100.00;100775.22;6321875;28;20066;-73
2022/01/14 13:52:30;;;;;;;95.50;42.58;;;;;;;-0.54;100.00;100770.09;6319811;28;20050;-70
2022/01/14 13:55:38;;;;;;;94.88;40.35;;;;;;;-0.63;100.00;100771.00;6321072;28;20040;-73
2022/01/14 13:58:43;;;;;;;102.97;43.80;;;;;;;-0.57;100.00;100772.69;6320817;28;20067;-74
2022/01/14 14:01:59;;;;;;;87.40;40.15;;;;;;;-0.66;100.00;100765.00;6317739;28;20047;-70
2022/01/14 14:04:59;;;;;;;93.63;41.38;;;;;;;-0.67;100.00;100758.19;6319678;28;20454;-70
2022/01/14 14:18:07;;;;;;;95.85;40.15;;;;;;;-0.90;100.00;100750.59;6304592;28;20098;-70
2022/01/14 14:21:15;;;;;;;101.55;44.88;;;;;;;-0.85;100.00;100736.03;6319376;28;20044;-70
2022/01/14 14:24:16;;;;;;;109.47;45.88;;;;;;;-0.80;100.00;100721.53;6285127;28;20376;-70